createdAt,value
2022-10-16T00:02:11.186Z,13.48
2022-10-16T00:04:43.883Z,13.45
2022-10-16T00:07:19.980Z,13.51
2022-10-16T00:10:23.451Z,13.47
2022-10-16T00:13:01.072Z,13.48
2022-10-16T00:15:34.796Z,13.47
2022-10-16T00:18:06.476Z,13.47
2022-10-16T00:20:49.183Z,13.46
2022-10-16T00:23:23.749Z,13.36
2022-10-16T00:26:53.929Z,13.29
2022-10-16T00:29:33.667Z,13.39
2022-10-16T00:32:41.234Z,13.25
2022-10-16T00:43:53.663Z,13.35
2022-10-16T00:46:29.463Z,13.33
2022-10-16T00:49:22.833Z,13.43
2022-10-16T00:52:03.935Z,13.40
2022-10-16T00:54:44.895Z,13.39
2022-10-16T00:57:16.010Z,13.39
2022-10-16T01:00:06.681Z,13.41
2022-10-16T01:05:37.255Z,13.38
2022-10-16T01:08:21.826Z,13.40
2022-10-16T01:11:03.372Z,13.38
2022-10-16T01:14:00.622Z,13.38
2022-10-16T01:20:34.244Z,13.39
2022-10-16T01:23:56.220Z,13.40
2022-10-16T01:27:26.712Z,13.38
2022-10-16T01:30:22.976Z,13.34
2022-10-16T01:33:06.714Z,13.40
2022-10-16T01:35:51.702Z,13.34
2022-10-16T01:38:34.435Z,13.44
2022-10-16T01:41:35.217Z,13.47
2022-10-16T01:47:48.870Z,13.50
2022-10-16T01:50:50.318Z,13.43
2022-10-16T01:53:39.523Z,13.49
2022-10-16T01:56:20.349Z,13.51
2022-10-16T01:59:12.199Z,13.50
2022-10-16T02:04:49.878Z,13.47
2022-10-16T02:07:20.728Z,13.53
2022-10-16T02:10:01.279Z,13.52
2022-10-16T02:12:57.110Z,13.48
2022-10-16T02:15:34.929Z,13.46
2022-10-16T02:18:10.821Z,13.53
2022-10-16T02:20:56.517Z,13.56
2022-10-16T02:24:03.242Z,13.48
2022-10-16T02:26:42.627Z,13.59
2022-10-16T02:29:19.766Z,13.60
2022-10-16T02:32:22.419Z,13.73
2022-10-16T02:35:22.627Z,13.80
2022-10-16T02:38:08.661Z,13.77
2022-10-16T02:40:46.836Z,13.88
2022-10-16T02:43:20.310Z,13.84
2022-10-16T02:45:55.542Z,13.95
2022-10-16T02:48:31.663Z,14.03
2022-10-16T02:51:14.946Z,14.03
2022-10-16T02:54:21.656Z,14.04
2022-10-16T02:56:59.714Z,14.09
2022-10-16T02:59:31.673Z,14.07
2022-10-16T03:02:14.684Z,14.09
2022-10-16T03:04:46.871Z,14.15
2022-10-16T03:07:36.038Z,14.13
2022-10-16T03:10:15.848Z,14.18
2022-10-16T03:13:07.653Z,14.15
2022-10-16T03:15:55.918Z,14.16
2022-10-16T03:18:43.403Z,14.21
2022-10-16T03:21:28.863Z,14.22
2022-10-16T03:24:09.528Z,14.22
2022-10-16T03:26:44.800Z,14.25
2022-10-16T03:32:12.836Z,14.14
2022-10-16T03:34:58.857Z,14.21
2022-10-16T03:37:51.220Z,14.22
2022-10-16T03:40:43.221Z,14.14
2022-10-16T03:43:18.474Z,14.24
2022-10-16T03:45:56.617Z,14.21
2022-10-16T03:48:30.802Z,14.18
2022-10-16T03:51:04.553Z,14.17
2022-10-16T03:53:44.334Z,14.16
2022-10-16T03:59:19.146Z,14.08
2022-10-16T04:02:06.398Z,14.14
2022-10-16T04:04:39.815Z,14.08
2022-10-16T04:07:19.379Z,14.01
2022-10-16T04:10:00.149Z,13.90
2022-10-16T04:12:57.573Z,13.79
2022-10-16T04:15:39.888Z,13.76
2022-10-16T04:18:27.088Z,13.79
2022-10-16T04:21:09.568Z,13.61
2022-10-16T04:23:42.590Z,13.64
2022-10-16T04:26:26.147Z,13.65
2022-10-16T04:29:13.546Z,13.63
2022-10-16T04:31:48.177Z,13.54
2022-10-16T04:34:26.106Z,13.70
2022-10-16T04:39:53.991Z,13.84
2022-10-16T04:42:27.233Z,13.88
2022-10-16T04:45:02.815Z,13.89
2022-10-16T04:47:47.304Z,13.89
2022-10-16T04:50:22.293Z,13.84
2022-10-16T04:53:06.299Z,13.82
2022-10-16T04:58:39.456Z,13.89
2022-10-16T05:01:18.705Z,13.93
2022-10-16T05:04:02.432Z,13.90
2022-10-16T05:06:51.211Z,14.03
2022-10-16T05:09:31.017Z,14.04
2022-10-16T05:12:06.096Z,14.11
2022-10-16T05:14:41.453Z,14.18
2022-10-16T05:17:18.924Z,14.24
2022-10-16T05:19:51.942Z,14.24
2022-10-16T05:22:31.556Z,14.28
2022-10-16T05:25:48.234Z,14.24
2022-10-16T05:28:37.253Z,14.31
2022-10-16T05:31:20.856Z,14.24
2022-10-16T05:34:03.637Z,14.23
2022-10-16T05:37:11.847Z,14.24
2022-10-16T05:39:52.145Z,14.23
2022-10-16T05:42:33.159Z,14.29
2022-10-16T05:45:07.411Z,14.35
2022-10-16T05:53:52.585Z,14.28
2022-10-16T05:56:22.818Z,14.33
2022-10-16T05:58:58.322Z,14.35
2022-10-16T06:01:54.626Z,14.33
2022-10-16T06:04:25.343Z,14.35
2022-10-16T06:06:59.131Z,14.35
2022-10-16T06:09:53.543Z,14.33
2022-10-16T06:12:31.714Z,14.31
2022-10-16T06:15:12.508Z,14.35
2022-10-16T06:18:00.047Z,14.27
2022-10-16T06:23:24.285Z,14.38
2022-10-16T06:26:12.967Z,14.42
2022-10-16T06:28:46.976Z,14.38
2022-10-16T06:31:34.652Z,14.34
2022-10-16T06:34:12.043Z,14.28
2022-10-16T06:36:45.424Z,14.31
2022-10-16T06:39:16.487Z,14.35
2022-10-16T06:41:55.446Z,14.37
2022-10-16T06:44:44.842Z,14.39
2022-10-16T06:47:28.067Z,14.43
2022-10-16T06:50:23.619Z,14.42
2022-10-16T06:53:07.653Z,14.41
2022-10-16T06:55:40.140Z,14.32
2022-10-16T07:01:01.352Z,14.48
2022-10-16T07:07:04.454Z,14.66
2022-10-16T07:09:52.288Z,14.69
2022-10-16T07:12:38.631Z,14.83
2022-10-16T07:15:31.265Z,14.94
2022-10-16T07:18:07.993Z,15.02
2022-10-16T07:20:52.554Z,15.07
2022-10-16T07:23:30.184Z,15.07
2022-10-16T07:26:18.523Z,15.08
2022-10-16T07:28:56.227Z,15.05
2022-10-16T07:31:44.660Z,15.17
2022-10-16T07:34:33.863Z,15.24
2022-10-16T07:39:59.899Z,15.38
2022-10-16T07:43:16.138Z,15.43
2022-10-16T07:46:01.318Z,15.51
2022-10-16T07:48:54.012Z,15.53
2022-10-16T07:51:35.822Z,15.61
2022-10-16T07:54:29.412Z,15.66
2022-10-16T07:57:21.352Z,15.69
2022-10-16T07:59:56.157Z,15.62
2022-10-16T08:02:37.939Z,15.72
2022-10-16T08:05:43.274Z,15.63
2022-10-16T08:08:27.410Z,15.62
2022-10-16T08:11:09.786Z,15.56
2022-10-16T08:13:59.119Z,15.51
2022-10-16T08:16:34.129Z,15.42
2022-10-16T08:22:10.913Z,15.38
2022-10-16T08:24:57.253Z,15.34
2022-10-16T08:30:45.169Z,15.38
2022-10-16T08:33:28.568Z,15.51
2022-10-16T08:36:02.588Z,15.48
2022-10-16T08:38:43.691Z,15.61
2022-10-16T08:41:39.151Z,15.56
2022-10-16T08:45:09.227Z,15.56
2022-10-16T08:47:57.264Z,15.56
2022-10-16T08:50:33.221Z,15.60
2022-10-16T08:53:09.668Z,15.66
2022-10-16T08:55:57.699Z,15.76
2022-10-16T08:58:36.356Z,15.80
2022-10-16T09:01:15.395Z,15.96
2022-10-16T09:04:38.268Z,16.00
2022-10-16T09:07:21.488Z,16.07
2022-10-16T09:10:07.678Z,16.13
2022-10-16T09:12:43.837Z,16.18
2022-10-16T09:15:35.862Z,16.17
2022-10-16T09:18:30.150Z,16.12
2022-10-16T09:21:14.129Z,16.20
2022-10-16T09:23:52.837Z,16.35
2022-10-16T09:26:41.195Z,16.37
2022-10-16T09:29:13.957Z,16.50
2022-10-16T09:31:50.589Z,16.58
2022-10-16T09:34:45.353Z,16.75
2022-10-16T09:37:23.083Z,16.88
2022-10-16T09:40:05.205Z,16.99
2022-10-16T09:42:39.583Z,17.01
2022-10-16T09:45:26.885Z,16.93
2022-10-16T09:48:03.501Z,16.99
2022-10-16T09:50:34.478Z,17.22
2022-10-16T09:53:44.406Z,17.27
2022-10-16T09:56:24.183Z,17.44
2022-10-16T09:59:02.580Z,17.41
2022-10-16T10:02:06.066Z,17.49
2022-10-16T10:04:47.317Z,17.60
2022-10-16T10:07:28.519Z,17.68
2022-10-16T10:10:01.533Z,17.83
2022-10-16T10:12:37.172Z,17.95
2022-10-16T10:15:11.150Z,17.93
2022-10-16T10:17:54.025Z,17.91
2022-10-16T10:20:30.455Z,17.87
2022-10-16T10:22:59.532Z,17.78
2022-10-16T10:25:52.288Z,17.68
2022-10-16T10:28:50.019Z,17.62
2022-10-16T10:31:27.164Z,17.59
2022-10-16T10:34:41.977Z,17.69
2022-10-16T10:37:36.555Z,17.85
2022-10-16T10:40:25.347Z,17.89
2022-10-16T10:43:09.610Z,18.02
2022-10-16T10:45:48.923Z,18.10
2022-10-16T10:48:52.787Z,18.07
2022-10-16T10:51:31.540Z,18.06
2022-10-16T10:54:11.169Z,18.07
2022-10-16T10:56:50.276Z,18.19
2022-10-16T10:59:56.708Z,18.24
2022-10-16T11:02:35.593Z,18.24
2022-10-16T11:05:35.726Z,18.30
2022-10-16T11:08:12.060Z,18.42
2022-10-16T11:10:50.080Z,18.53
2022-10-16T11:13:31.332Z,18.63
2022-10-16T11:16:04.066Z,18.67
2022-10-16T11:18:44.777Z,18.54
2022-10-16T11:21:16.759Z,18.51
2022-10-16T11:23:54.619Z,18.54
2022-10-16T11:26:26.134Z,18.47
2022-10-16T11:28:56.878Z,18.36
2022-10-16T11:31:35.585Z,18.24
2022-10-16T11:34:16.907Z,18.19
2022-10-16T11:36:52.331Z,18.23
2022-10-16T11:39:26.616Z,18.36
2022-10-16T11:41:58.919Z,18.52
2022-10-16T11:44:41.086Z,18.66
2022-10-16T11:47:54.414Z,18.79
2022-10-16T11:50:25.375Z,18.92
2022-10-16T11:53:03.659Z,18.96
2022-10-16T11:55:41.787Z,18.99
2022-10-16T11:58:25.305Z,19.08
2022-10-16T12:01:04.739Z,19.18
2022-10-16T12:03:44.903Z,19.15
2022-10-16T12:06:30.867Z,19.10
2022-10-16T12:09:01.849Z,19.12
2022-10-16T12:11:41.021Z,19.09
2022-10-16T12:14:43.005Z,19.09
2022-10-16T12:17:35.794Z,19.16
2022-10-16T12:20:24.684Z,19.24
2022-10-16T12:22:56.467Z,19.32
2022-10-16T12:25:29.480Z,19.41
2022-10-16T12:28:03.215Z,19.51
2022-10-16T12:30:35.908Z,19.63
2022-10-16T12:33:07.536Z,19.79
2022-10-16T12:35:44.760Z,19.94
2022-10-16T12:38:21.175Z,20.16
2022-10-16T12:40:58.838Z,20.85
2022-10-16T12:43:39.759Z,21.74
2022-10-16T12:46:26.091Z,22.49
2022-10-16T12:49:09.427Z,22.93
2022-10-16T12:51:39.123Z,23.25
2022-10-16T12:54:16.208Z,23.38
2022-10-16T12:57:00.176Z,23.68
2022-10-16T12:59:45.936Z,23.99
2022-10-16T13:03:10.355Z,24.17
2022-10-16T13:05:56.948Z,24.35
2022-10-16T13:08:43.795Z,24.61
2022-10-16T13:11:22.896Z,24.87
2022-10-16T13:14:09.554Z,25.10
2022-10-16T13:16:52.665Z,25.13
2022-10-16T13:19:31.775Z,25.15
2022-10-16T13:22:07.528Z,25.26
2022-10-16T13:24:57.471Z,25.40
2022-10-16T13:27:39.079Z,25.51
2022-10-16T13:30:18.090Z,25.48
2022-10-16T13:35:27.512Z,23.93
2022-10-16T13:38:07.823Z,23.05
2022-10-16T13:40:36.054Z,22.55
2022-10-16T13:43:04.700Z,22.15
2022-10-16T13:45:32.798Z,21.83
2022-10-16T13:48:06.545Z,21.54
2022-10-16T13:50:34.695Z,21.29
2022-10-16T13:53:09.763Z,20.97
2022-10-16T13:55:38.353Z,20.78
2022-10-16T13:58:14.475Z,20.60
2022-10-16T14:00:45.174Z,20.42
2022-10-16T14:03:17.418Z,20.28
2022-10-16T14:05:51.138Z,20.12
2022-10-16T14:08:19.923Z,20.00
2022-10-16T14:10:51.752Z,19.84
2022-10-16T14:13:24.163Z,19.68
2022-10-16T14:15:56.057Z,19.56
2022-10-16T14:18:33.272Z,19.47
2022-10-16T14:21:09.594Z,19.38
2022-10-16T14:23:39.960Z,19.31
2022-10-16T14:26:15.793Z,19.23
2022-10-16T14:28:45.518Z,19.13
2022-10-16T14:31:29.683Z,19.02
2022-10-16T14:34:00.612Z,18.94
2022-10-16T14:36:29.999Z,18.88
2022-10-16T14:39:05.208Z,18.86
2022-10-16T14:41:35.365Z,18.87
2022-10-16T14:44:06.092Z,18.87
2022-10-16T14:46:38.099Z,18.87
2022-10-16T14:49:20.778Z,18.85
2022-10-16T14:51:49.436Z,18.83
2022-10-16T14:54:20.292Z,18.80
2022-10-16T14:56:53.242Z,18.77
2022-10-16T14:59:28.483Z,18.72
2022-10-16T15:01:56.775Z,18.71
2022-10-16T15:04:26.380Z,18.71
2022-10-16T15:06:54.512Z,18.69
2022-10-16T15:09:22.592Z,18.68
2022-10-16T15:11:50.932Z,18.67
2022-10-16T15:14:19.471Z,18.65
2022-10-16T15:16:48.258Z,18.62
2022-10-16T15:19:16.405Z,18.61
2022-10-16T15:21:45.974Z,18.59
2022-10-16T15:24:19.215Z,18.56
2022-10-16T15:26:50.221Z,18.54
2022-10-16T15:29:18.700Z,18.52
2022-10-16T15:31:48.577Z,18.49
2022-10-16T15:34:17.666Z,18.45
2022-10-16T15:36:47.318Z,18.42
2022-10-16T15:39:18.536Z,18.36
2022-10-16T15:41:51.514Z,18.30
2022-10-16T15:44:19.764Z,18.25
2022-10-16T15:46:48.587Z,18.18
2022-10-16T15:49:16.872Z,18.09
2022-10-16T15:51:47.906Z,18.00
2022-10-16T15:54:16.201Z,17.90
2022-10-16T15:56:45.066Z,17.80
2022-10-16T15:59:13.181Z,17.69
2022-10-16T16:01:41.714Z,17.57
2022-10-16T16:04:11.253Z,17.46
2022-10-16T16:06:50.096Z,17.35
2022-10-16T16:09:18.244Z,17.24
2022-10-16T16:11:46.707Z,17.13
2022-10-16T16:14:15.996Z,17.00
2022-10-16T16:16:44.409Z,16.90
2022-10-16T16:19:12.730Z,16.80
2022-10-16T16:21:41.002Z,16.69
2022-10-16T16:24:11.026Z,16.57
2022-10-16T16:26:40.917Z,16.42
2022-10-16T16:29:10.674Z,16.27
2022-10-16T16:31:39.534Z,16.13
2022-10-16T16:34:08.764Z,16.00
2022-10-16T16:36:37.491Z,15.87
2022-10-16T16:39:05.831Z,15.75
2022-10-16T16:41:35.611Z,15.63
2022-10-16T16:44:06.405Z,15.52
2022-10-16T16:46:35.718Z,15.40
2022-10-16T16:49:05.038Z,15.30
2022-10-16T16:51:36.913Z,15.18
2022-10-16T16:54:09.806Z,15.09
2022-10-16T16:56:39.447Z,15.00
2022-10-16T16:59:07.640Z,14.93
2022-10-16T17:01:35.974Z,14.87
2022-10-16T17:04:04.043Z,14.78
2022-10-16T17:06:32.246Z,14.69
2022-10-16T17:09:00.957Z,14.63
2022-10-16T17:11:30.451Z,14.56
2022-10-16T17:14:01.286Z,14.48
2022-10-16T17:16:32.706Z,14.39
2022-10-16T17:19:04.920Z,14.31
2022-10-16T17:21:33.233Z,14.21
2022-10-16T17:24:01.971Z,14.11
2022-10-16T17:26:30.356Z,14.02
2022-10-16T17:29:02.838Z,13.92
2022-10-16T17:31:35.193Z,13.83
2022-10-16T17:34:06.564Z,13.77
2022-10-16T17:36:37.554Z,13.73
2022-10-16T17:39:09.600Z,13.71
2022-10-16T17:41:38.340Z,13.69
2022-10-16T17:44:09.268Z,13.69
2022-10-16T17:46:40.944Z,13.69
2022-10-16T17:49:10.810Z,13.69
2022-10-16T17:51:39.027Z,13.70
2022-10-16T17:54:09.864Z,13.70
2022-10-16T17:56:37.956Z,13.70
2022-10-16T17:59:07.834Z,13.69
2022-10-16T18:01:40.102Z,13.68
2022-10-16T18:04:12.377Z,13.64
2022-10-16T18:06:42.778Z,13.62
2022-10-16T18:09:14.946Z,13.61
2022-10-16T18:11:43.207Z,13.56
2022-10-16T18:14:15.679Z,13.56
2022-10-16T18:16:44.181Z,13.53
2022-10-16T18:19:13.265Z,13.52
2022-10-16T18:21:41.703Z,13.51
2022-10-16T18:24:11.165Z,13.49
2022-10-16T18:26:39.919Z,13.49
2022-10-16T18:29:08.772Z,13.49
2022-10-16T18:31:41.885Z,13.49
2022-10-16T18:34:12.452Z,13.49
2022-10-16T18:36:42.293Z,13.48
2022-10-16T18:39:11.439Z,13.47
2022-10-16T18:41:40.825Z,13.47
2022-10-16T18:44:10.877Z,13.48
2022-10-16T18:46:41.030Z,13.48
2022-10-16T18:49:09.178Z,13.48
2022-10-16T18:51:40.638Z,13.48
2022-10-16T18:54:11.489Z,13.50
2022-10-16T18:56:40.339Z,13.52
2022-10-16T18:59:10.433Z,13.52
2022-10-16T19:01:42.571Z,13.52
2022-10-16T19:04:13.369Z,13.51
2022-10-16T19:06:45.044Z,13.50
2022-10-16T19:15:01.403Z,13.40
2022-10-16T19:17:39.823Z,13.42
2022-10-16T19:20:11.099Z,13.43
2022-10-16T19:23:02.070Z,13.45
2022-10-16T19:25:30.529Z,13.44
2022-10-16T19:27:59.381Z,13.43
2022-10-16T19:30:29.831Z,13.48
2022-10-16T19:35:53.136Z,13.50
2022-10-16T19:38:29.410Z,13.54
2022-10-16T19:41:08.139Z,13.55
2022-10-16T19:43:47.666Z,13.58
2022-10-16T19:46:20.639Z,13.57
2022-10-16T19:49:05.645Z,13.60
2022-10-16T19:51:35.877Z,13.61
2022-10-16T19:54:08.986Z,13.58
2022-10-16T19:56:40.971Z,13.61
2022-10-16T19:59:17.292Z,13.62
2022-10-16T20:01:49.097Z,13.58
2022-10-16T20:04:21.215Z,13.58
2022-10-16T20:09:23.901Z,13.57
2022-10-16T20:11:53.049Z,13.59
2022-10-16T20:14:37.514Z,13.57
2022-10-16T20:17:15.220Z,13.56
2022-10-16T20:19:50.866Z,13.53
2022-10-16T20:22:19.467Z,13.54
2022-10-16T20:24:51.211Z,13.48
2022-10-16T20:27:21.519Z,13.56
2022-10-16T20:29:51.535Z,13.61
2022-10-16T20:32:25.346Z,13.64
2022-10-16T20:35:07.107Z,13.57
2022-10-16T20:37:38.036Z,13.64
2022-10-16T20:40:16.697Z,13.61
2022-10-16T20:42:48.659Z,13.65
2022-10-16T20:45:17.181Z,13.62
2022-10-16T20:47:46.787Z,13.59
2022-10-16T20:50:18.215Z,13.62
2022-10-16T20:52:53.380Z,13.65
2022-10-16T20:55:29.601Z,13.64
2022-10-16T20:58:02.295Z,13.64
2022-10-16T21:00:47.765Z,13.58
2022-10-16T21:03:19.009Z,13.61
2022-10-16T21:08:46.705Z,13.54
2022-10-16T21:11:21.130Z,13.61
2022-10-16T21:19:24.576Z,13.67
2022-10-16T21:21:55.257Z,13.69
2022-10-16T21:24:26.460Z,13.71
2022-10-16T21:27:21.593Z,13.74
2022-10-16T21:29:51.305Z,13.71
2022-10-16T21:32:38.786Z,13.82
2022-10-16T21:35:09.462Z,13.86
2022-10-16T21:37:49.834Z,13.91
2022-10-16T21:40:18.231Z,13.91
2022-10-16T21:42:54.518Z,13.93
2022-10-16T21:48:05.944Z,13.96
2022-10-16T21:50:36.943Z,13.95
2022-10-16T21:53:28.705Z,13.94
2022-10-16T21:56:04.792Z,13.98
2022-10-16T21:58:40.695Z,14.03
2022-10-16T22:01:13.710Z,14.01
2022-10-16T22:03:42.717Z,14.04
2022-10-16T22:06:12.327Z,14.06
2022-10-16T22:09:14.898Z,14.07
2022-10-16T22:11:46.847Z,14.04
2022-10-16T22:14:50.711Z,14.06
2022-10-16T22:17:25.068Z,14.04
2022-10-16T22:20:02.756Z,14.06
2022-10-16T22:22:33.939Z,14.06
2022-10-16T22:25:07.077Z,14.06
2022-10-16T22:27:35.468Z,14.07
2022-10-16T22:30:04.179Z,14.09
2022-10-16T22:32:35.065Z,14.09
2022-10-16T22:35:04.786Z,14.05
2022-10-16T22:37:35.551Z,14.10
2022-10-16T22:40:06.161Z,14.05
2022-10-16T22:42:37.571Z,14.07
2022-10-16T22:45:08.118Z,14.14
2022-10-16T22:47:40.756Z,14.14
2022-10-16T22:50:16.590Z,14.14
2022-10-16T22:52:47.104Z,14.09
2022-10-16T22:56:03.677Z,14.02
2022-10-16T22:58:32.070Z,14.01
2022-10-16T23:01:01.675Z,14.00
2022-10-16T23:03:46.170Z,13.98
2022-10-16T23:06:26.252Z,13.98
2022-10-16T23:09:11.853Z,13.95
2022-10-16T23:11:50.068Z,13.85
2022-10-16T23:14:26.065Z,13.78
2022-10-16T23:17:02.970Z,13.73
2022-10-16T23:19:32.761Z,13.64
2022-10-16T23:22:07.328Z,13.61
2022-10-16T23:24:42.907Z,13.50
2022-10-16T23:27:27.573Z,13.46
2022-10-16T23:30:01.053Z,13.46
2022-10-16T23:32:30.116Z,13.43
2022-10-16T23:37:47.661Z,13.41
2022-10-16T23:40:17.599Z,13.40
2022-10-16T23:42:52.668Z,13.39
2022-10-16T23:45:23.046Z,13.39
2022-10-16T23:47:55.546Z,13.38
2022-10-16T23:50:24.269Z,13.38
2022-10-16T23:52:53.369Z,13.45
2022-10-16T23:55:25.753Z,13.56
2022-10-16T23:57:56.130Z,13.71
